createdAt,value
2022-12-27T00:00:17.820Z,101369.56
2022-12-27T00:03:20.528Z,101354.00
2022-12-27T00:06:25.574Z,101349.13
2022-12-27T00:09:28.244Z,101351.06
2022-12-27T00:12:30.346Z,101341.66
2022-12-27T00:15:36.810Z,101333.16
2022-12-27T00:18:40.719Z,101345.72
2022-12-27T00:21:42.900Z,101346.53
2022-12-27T00:24:45.284Z,101350.66
2022-12-27T00:27:49.821Z,101347.31
2022-12-27T00:30:57.064Z,101349.50
2022-12-27T00:34:04.425Z,101340.00
2022-12-27T00:37:06.545Z,101340.31
2022-12-27T00:40:15.418Z,101365.25
2022-12-27T00:43:17.605Z,101346.38
2022-12-27T00:46:20.754Z,101356.38
2022-12-27T00:49:23.184Z,101365.16
2022-12-27T00:52:25.405Z,101359.06
2022-12-27T00:55:27.510Z,101344.88
2022-12-27T00:58:29.707Z,101349.66
2022-12-27T01:01:35.220Z,101358.41
2022-12-27T01:04:37.243Z,101331.00
2022-12-27T01:07:39.857Z,101329.41
2022-12-27T01:10:42.177Z,101337.91
2022-12-27T01:13:47.351Z,101352.22
2022-12-27T01:16:49.902Z,101348.53
2022-12-27T01:19:52.831Z,101352.56
2022-12-27T01:22:55.100Z,101346.66
2022-12-27T01:26:06.453Z,101361.38
2022-12-27T01:29:12.588Z,101343.50
2022-12-27T01:32:15.830Z,101337.78
2022-12-27T01:35:18.236Z,101344.19
2022-12-27T01:38:20.640Z,101345.41
2022-12-27T01:41:52.593Z,101331.72
2022-12-27T01:44:57.872Z,101319.78
2022-12-27T01:48:10.425Z,101326.38
2022-12-27T01:51:12.860Z,101320.63
2022-12-27T01:54:15.209Z,101322.34
2022-12-27T01:57:17.565Z,101311.06
2022-12-27T02:00:20.344Z,101303.78
2022-12-27T02:03:30.539Z,101318.09
2022-12-27T02:06:34.213Z,101314.91
2022-12-27T02:09:44.807Z,101305.44
2022-12-27T02:12:47.285Z,101280.78
2022-12-27T02:15:49.893Z,101294.28
2022-12-27T02:18:51.905Z,101292.72
2022-12-27T02:22:21.135Z,101271.25
2022-12-27T02:25:45.793Z,101278.41
2022-12-27T02:29:06.107Z,101278.75
2022-12-27T02:32:35.370Z,101283.75
2022-12-27T02:35:43.469Z,101271.25
2022-12-27T02:38:51.005Z,101284.63
2022-12-27T02:42:13.642Z,101274.84
2022-12-27T02:45:39.812Z,101264.53
2022-12-27T02:49:12.701Z,101281.09
2022-12-27T02:52:55.172Z,101269.06
2022-12-27T02:56:38.953Z,101249.09
2022-12-27T03:00:23.878Z,101256.47
2022-12-27T03:04:07.165Z,101246.31
2022-12-27T03:07:14.951Z,101238.19
2022-12-27T03:11:11.584Z,101240.88
2022-12-27T03:14:54.104Z,101232.97
2022-12-27T03:18:12.053Z,101232.63
2022-12-27T03:21:42.450Z,101225.41
2022-12-27T03:25:03.253Z,101221.84
2022-12-27T03:28:28.937Z,101220.16
2022-12-27T03:31:53.624Z,101208.09
2022-12-27T03:35:10.763Z,101206.22
2022-12-27T03:38:15.207Z,101199.28
2022-12-27T03:42:17.327Z,101175.28
2022-12-27T03:45:21.978Z,101210.41
2022-12-27T03:48:26.905Z,101188.28
2022-12-27T03:51:37.531Z,101215.75
2022-12-27T03:54:42.248Z,101203.28
2022-12-27T03:57:44.711Z,101219.72
2022-12-27T04:00:47.585Z,101217.91
2022-12-27T04:03:49.621Z,101200.13
2022-12-27T04:06:51.844Z,101215.47
2022-12-27T04:10:12.880Z,101207.13
2022-12-27T04:13:33.823Z,101220.16
2022-12-27T04:16:54.780Z,101225.03
2022-12-27T04:20:15.703Z,101216.09
2022-12-27T04:23:40.734Z,101211.91
2022-12-27T04:27:02.224Z,101216.81
2022-12-27T04:30:23.223Z,101223.44
2022-12-27T04:33:43.756Z,101225.31
2022-12-27T04:36:46.323Z,101223.44
2022-12-27T04:40:06.880Z,101235.75
2022-12-27T04:43:28.072Z,101234.41
2022-12-27T04:46:49.449Z,101226.66
2022-12-27T04:50:10.419Z,101252.69
2022-12-27T04:53:34.243Z,101233.41
2022-12-27T04:56:36.241Z,101240.84
2022-12-27T04:59:57.269Z,101229.19
2022-12-27T05:03:01.066Z,101227.16
2022-12-27T05:06:04.129Z,101212.47
2022-12-27T05:09:35.682Z,101228.31
2022-12-27T05:12:56.233Z,101215.50
2022-12-27T05:15:58.371Z,101207.91
2022-12-27T05:19:00.517Z,101212.31
2022-12-27T05:22:21.287Z,101214.34
2022-12-27T05:25:35.648Z,101215.91
2022-12-27T05:28:37.735Z,101214.91
2022-12-27T05:31:39.973Z,101216.44
2022-12-27T05:34:42.282Z,101215.22
2022-12-27T05:37:47.638Z,101210.16
2022-12-27T05:40:52.124Z,101204.25
2022-12-27T05:43:54.188Z,101214.69
2022-12-27T05:46:56.341Z,101193.38
2022-12-27T05:49:58.458Z,101191.44
2022-12-27T05:53:00.473Z,101178.03
2022-12-27T05:56:02.803Z,101168.97
2022-12-27T05:59:05.628Z,101177.34
2022-12-27T06:02:07.725Z,101175.03
2022-12-27T06:05:10.716Z,101180.22
2022-12-27T06:08:13.188Z,101169.66
2022-12-27T06:11:17.944Z,101177.50
2022-12-27T06:14:20.093Z,101171.16
2022-12-27T06:17:22.286Z,101193.06
2022-12-27T06:20:24.529Z,101190.50
2022-12-27T06:23:26.597Z,101187.66
2022-12-27T06:26:30.169Z,101196.19
2022-12-27T06:29:32.407Z,101187.34
2022-12-27T06:32:35.452Z,101189.19
2022-12-27T06:35:37.531Z,101190.56
2022-12-27T06:38:39.995Z,101200.50
2022-12-27T06:41:42.100Z,101201.25
2022-12-27T06:44:44.196Z,101198.16
2022-12-27T06:47:46.217Z,101204.16
2022-12-27T06:50:48.268Z,101197.50
2022-12-27T06:53:50.649Z,101184.97
2022-12-27T06:56:52.713Z,101185.53
2022-12-27T06:59:54.731Z,101186.31
2022-12-27T07:02:56.787Z,101175.94
2022-12-27T07:06:02.609Z,101189.50
2022-12-27T07:09:06.015Z,101180.88
2022-12-27T07:12:08.116Z,101178.66
2022-12-27T07:15:10.738Z,101169.28
2022-12-27T07:18:12.918Z,101189.88
2022-12-27T07:21:17.970Z,101185.53
2022-12-27T07:24:20.100Z,101178.72
2022-12-27T07:27:22.091Z,101188.41
2022-12-27T07:30:24.155Z,101189.34
2022-12-27T07:33:26.557Z,101175.97
2022-12-27T07:36:32.720Z,101182.41
2022-12-27T07:39:34.776Z,101183.88
2022-12-27T07:42:36.761Z,101191.03
2022-12-27T07:45:38.828Z,101200.34
2022-12-27T07:48:45.231Z,101183.13
2022-12-27T07:51:47.217Z,101184.53
2022-12-27T07:54:50.320Z,101199.47
2022-12-27T07:57:52.412Z,101218.16
2022-12-27T08:00:54.483Z,101208.16
2022-12-27T08:03:56.909Z,101211.16
2022-12-27T08:07:08.958Z,101224.84
2022-12-27T08:10:12.050Z,101219.13
2022-12-27T08:13:14.973Z,101223.56
2022-12-27T08:16:20.604Z,101230.28
2022-12-27T08:19:31.072Z,101226.16
2022-12-27T08:22:33.231Z,101210.41
2022-12-27T08:25:40.924Z,101222.75
2022-12-27T08:28:46.993Z,101226.03
2022-12-27T08:31:49.292Z,101249.44
2022-12-27T08:34:51.278Z,101253.91
2022-12-27T08:37:53.378Z,101230.44
2022-12-27T08:40:55.771Z,101227.44
2022-12-27T08:43:57.852Z,101208.91
2022-12-27T08:46:59.928Z,101230.59
2022-12-27T08:50:01.929Z,101221.63
2022-12-27T08:53:06.116Z,101212.19
2022-12-27T08:56:08.199Z,101204.25
2022-12-27T08:59:10.253Z,101206.66
2022-12-27T09:02:13.007Z,101198.34
2022-12-27T09:05:15.937Z,101191.63
2022-12-27T09:08:18.035Z,101197.41
2022-12-27T09:11:31.625Z,101189.00
2022-12-27T09:14:34.054Z,101194.22
2022-12-27T09:17:36.301Z,101182.63
2022-12-27T09:20:38.817Z,101179.06
2022-12-27T09:23:41.566Z,101185.88
2022-12-27T09:26:43.712Z,101184.78
2022-12-27T09:29:48.453Z,101176.63
2022-12-27T09:32:51.079Z,101180.66
2022-12-27T09:35:53.245Z,101168.97
2022-12-27T09:38:56.498Z,101164.91
2022-12-27T09:45:41.082Z,101148.38
2022-12-27T09:48:43.124Z,101150.16
2022-12-27T09:51:54.462Z,101146.50
2022-12-27T09:55:08.289Z,101132.94
2022-12-27T09:58:36.644Z,101132.13
2022-12-27T10:01:44.734Z,101140.34
2022-12-27T10:05:18.583Z,101122.31
2022-12-27T10:08:18.256Z,101143.81
2022-12-27T10:11:38.881Z,101141.56
2022-12-27T10:15:05.603Z,101144.34
2022-12-27T10:18:26.119Z,101149.16
2022-12-27T10:21:30.281Z,101138.28
2022-12-27T10:24:44.908Z,101154.31
2022-12-27T10:27:48.559Z,101150.25
2022-12-27T10:30:50.570Z,101161.22
2022-12-27T10:33:53.368Z,101149.06
2022-12-27T10:36:55.451Z,101134.25
2022-12-27T10:40:13.386Z,101136.66
2022-12-27T10:43:20.040Z,101138.31
2022-12-27T10:46:32.756Z,101142.69
2022-12-27T10:49:36.597Z,101144.81
2022-12-27T10:52:38.776Z,101144.34
2022-12-27T10:55:40.800Z,101130.63
2022-12-27T10:58:58.587Z,101127.00
2022-12-27T11:02:02.586Z,101129.97
2022-12-27T11:05:05.153Z,101136.31
2022-12-27T11:08:20.952Z,101141.00
2022-12-27T11:11:25.878Z,101141.66
2022-12-27T11:14:27.869Z,101142.38
2022-12-27T11:17:43.666Z,101129.94
2022-12-27T11:20:57.944Z,101106.38
2022-12-27T11:24:02.406Z,101131.97
2022-12-27T11:27:04.827Z,101129.47
2022-12-27T11:30:20.176Z,101127.94
2022-12-27T11:33:42.499Z,101138.72
2022-12-27T11:36:48.978Z,101087.09
2022-12-27T11:40:10.498Z,101125.34
2022-12-27T11:43:19.648Z,101122.56
2022-12-27T11:46:31.039Z,101120.13
2022-12-27T11:49:36.863Z,101111.44
2022-12-27T11:52:51.422Z,101130.72
2022-12-27T11:56:06.684Z,101128.44
2022-12-27T11:59:35.216Z,101133.47
2022-12-27T12:03:01.427Z,101126.16
2022-12-27T12:06:06.302Z,101118.84
2022-12-27T12:09:45.568Z,101124.94
2022-12-27T12:12:59.394Z,101127.63
2022-12-27T12:16:24.219Z,101124.84
2022-12-27T12:20:04.176Z,101128.19
2022-12-27T12:23:13.172Z,101123.78
2022-12-27T12:26:23.229Z,101132.34
2022-12-27T12:30:26.997Z,101135.16
2022-12-27T12:33:50.101Z,101147.31
2022-12-27T12:37:30.928Z,101153.44
2022-12-27T12:40:58.014Z,101149.91
2022-12-27T12:44:09.061Z,101156.03
2022-12-27T12:47:35.479Z,101158.44
2022-12-27T12:50:44.177Z,101158.78
2022-12-27T12:54:01.320Z,101162.19
2022-12-27T12:57:15.310Z,101160.13
2022-12-27T13:00:40.156Z,101160.25
2022-12-27T13:03:50.414Z,101161.78
2022-12-27T13:07:40.998Z,101196.09
2022-12-27T13:11:02.227Z,101289.44
2022-12-27T13:14:16.241Z,101296.97
2022-12-27T13:17:43.462Z,101319.25
2022-12-27T13:21:26.143Z,101332.38
2022-12-27T13:24:50.799Z,101330.16
2022-12-27T13:28:09.505Z,101320.59
2022-12-27T13:31:52.305Z,101325.94
2022-12-27T13:35:20.220Z,101341.97
2022-12-27T13:38:33.306Z,101364.69
2022-12-27T13:41:44.375Z,101371.28
2022-12-27T13:45:20.367Z,101372.75
2022-12-27T13:48:42.746Z,101367.25
2022-12-27T13:51:52.141Z,101374.09
2022-12-27T13:55:16.813Z,101377.84
2022-12-27T13:58:37.250Z,101379.59
2022-12-27T14:01:58.823Z,101397.97
2022-12-27T14:05:35.338Z,101399.19
2022-12-27T14:08:56.093Z,101411.84
2022-12-27T14:12:29.562Z,101419.78
2022-12-27T14:15:31.497Z,101408.06
2022-12-27T14:19:03.125Z,101410.50
2022-12-27T14:22:17.162Z,101425.41
2022-12-27T14:25:46.950Z,101439.16
2022-12-27T14:29:01.339Z,101444.41
2022-12-27T14:32:21.951Z,101460.44
2022-12-27T14:35:54.815Z,101485.72
2022-12-27T14:39:12.689Z,101496.47
2022-12-27T14:42:29.453Z,101496.75
2022-12-27T14:46:05.195Z,101489.16
2022-12-27T14:49:24.385Z,101503.03
2022-12-27T14:52:54.136Z,101498.03
2022-12-27T14:56:24.765Z,101486.59
2022-12-27T14:59:40.980Z,101484.75
2022-12-27T15:02:49.327Z,101516.94
2022-12-27T15:05:57.740Z,101518.41
2022-12-27T15:09:23.791Z,101504.81
2022-12-27T15:12:35.431Z,101523.47
2022-12-27T15:15:52.732Z,101538.06
2022-12-27T15:19:10.138Z,101521.53
2022-12-27T15:22:34.953Z,101543.03
2022-12-27T15:26:01.210Z,101511.69
2022-12-27T15:29:03.312Z,101529.34
2022-12-27T15:32:26.595Z,101549.16
2022-12-27T15:35:28.777Z,101552.63
2022-12-27T15:38:54.520Z,101539.50
2022-12-27T15:42:22.947Z,101554.44
2022-12-27T15:45:42.978Z,101562.56
2022-12-27T15:49:09.731Z,101583.25
2022-12-27T15:52:48.638Z,101593.16
2022-12-27T15:55:59.737Z,101606.31
2022-12-27T15:59:39.041Z,101606.06
2022-12-27T16:02:44.044Z,101622.31
2022-12-27T16:05:52.492Z,101624.91
2022-12-27T16:09:23.606Z,101642.16
2022-12-27T16:12:37.705Z,101656.78
2022-12-27T16:15:51.173Z,101661.59
2022-12-27T16:19:03.132Z,101674.00
2022-12-27T16:22:34.640Z,101652.78
2022-12-27T16:25:43.661Z,101695.00
2022-12-27T16:29:03.308Z,101693.00
2022-12-27T16:32:32.018Z,101691.63
2022-12-27T16:35:34.060Z,101693.13
2022-12-27T16:38:39.664Z,101715.66
2022-12-27T16:41:57.168Z,101725.06
2022-12-27T16:45:23.190Z,101722.59
2022-12-27T16:48:49.635Z,101735.97
2022-12-27T16:52:23.513Z,101745.66
2022-12-27T16:56:04.649Z,101755.16
2022-12-27T16:59:26.450Z,101769.28
2022-12-27T17:02:38.393Z,101768.09
2022-12-27T17:05:52.943Z,101777.75
2022-12-27T17:09:08.784Z,101788.56
2022-12-27T17:12:17.824Z,101796.19
2022-12-27T17:15:22.307Z,101762.97
2022-12-27T17:18:33.777Z,101804.19
2022-12-27T17:21:41.685Z,101809.41
2022-12-27T17:24:47.785Z,101811.97
2022-12-27T17:28:05.623Z,101803.31
2022-12-27T17:31:22.614Z,101815.84
2022-12-27T17:34:36.846Z,101820.19
2022-12-27T17:38:16.345Z,101824.56
2022-12-27T17:42:07.300Z,101826.44
2022-12-27T17:45:18.269Z,101825.59
2022-12-27T17:48:29.370Z,101826.91
2022-12-27T17:51:34.595Z,101823.63
2022-12-27T17:55:00.273Z,101840.91
2022-12-27T17:58:06.099Z,101837.88
2022-12-27T18:01:08.357Z,101840.31
2022-12-27T18:04:19.870Z,101848.31
2022-12-27T18:07:30.314Z,101840.44
2022-12-27T18:10:34.749Z,101835.75
2022-12-27T18:13:44.712Z,101846.75
2022-12-27T18:16:47.867Z,101855.81
2022-12-27T18:19:49.935Z,101843.59
2022-12-27T18:23:01.140Z,101866.25
2022-12-27T18:26:13.395Z,101865.91
2022-12-27T18:29:16.146Z,101861.75
2022-12-27T18:32:19.519Z,101878.03
2022-12-27T18:35:24.428Z,101886.69
2022-12-27T18:38:32.641Z,101880.25
2022-12-27T18:41:47.803Z,101882.16
2022-12-27T18:44:55.204Z,101885.19
2022-12-27T18:48:02.369Z,101892.84
2022-12-27T18:51:22.602Z,101866.22
2022-12-27T18:54:29.745Z,101887.78
2022-12-27T18:57:37.745Z,101887.13
2022-12-27T19:00:54.891Z,101905.59
2022-12-27T19:04:17.558Z,101903.91
2022-12-27T19:07:19.899Z,101907.97
2022-12-27T19:10:25.656Z,101930.84
2022-12-27T19:13:49.911Z,101925.75
2022-12-27T19:16:56.160Z,101927.63
2022-12-27T19:20:03.346Z,101926.59
2022-12-27T19:23:24.279Z,101936.44
2022-12-27T19:26:32.974Z,101942.38
2022-12-27T19:29:40.997Z,101942.03
2022-12-27T19:32:44.730Z,101943.38
2022-12-27T19:35:46.802Z,101950.88
2022-12-27T19:38:51.634Z,101954.38
2022-12-27T19:42:01.016Z,101958.81
2022-12-27T19:45:10.878Z,101953.88
2022-12-27T19:48:14.028Z,101963.03
2022-12-27T19:51:19.324Z,101970.28
2022-12-27T19:54:23.141Z,101953.88
2022-12-27T19:57:25.349Z,101955.34
2022-12-27T20:00:28.022Z,101952.28
2022-12-27T20:03:30.790Z,101963.34
2022-12-27T20:06:33.987Z,101972.31
2022-12-27T20:09:36.030Z,101966.00
2022-12-27T20:12:38.163Z,101973.63
2022-12-27T20:15:40.270Z,101968.31
2022-12-27T20:18:43.838Z,101984.88
2022-12-27T20:21:47.336Z,101991.91
2022-12-27T20:24:49.491Z,101999.16
2022-12-27T20:27:51.732Z,102005.75
2022-12-27T20:30:53.831Z,102006.88
2022-12-27T20:33:56.458Z,102003.13
2022-12-27T20:36:58.729Z,102011.06
2022-12-27T20:40:00.791Z,102007.13
2022-12-27T20:43:03.164Z,102010.78
2022-12-27T20:46:16.729Z,102014.28
2022-12-27T20:49:18.867Z,102023.13
2022-12-27T20:52:25.699Z,102022.91
2022-12-27T20:55:33.496Z,102022.44
2022-12-27T20:58:35.848Z,102029.63
2022-12-27T21:01:38.066Z,102033.03
2022-12-27T21:04:41.021Z,102039.94
2022-12-27T21:07:43.106Z,102045.34
2022-12-27T21:10:45.122Z,102045.41
2022-12-27T21:13:48.900Z,102039.53
2022-12-27T21:16:52.869Z,102041.94
2022-12-27T21:19:55.274Z,102048.50
2022-12-27T21:22:57.365Z,102049.97
2022-12-27T21:26:09.040Z,102058.03
2022-12-27T21:29:14.410Z,102060.03
2022-12-27T21:32:17.933Z,102059.19
2022-12-27T21:35:20.231Z,102078.66
2022-12-27T21:38:22.508Z,102087.25
2022-12-27T21:41:27.519Z,102074.56
2022-12-27T21:44:30.080Z,102083.31
2022-12-27T21:47:32.756Z,102090.09
2022-12-27T21:50:37.411Z,102059.00
2022-12-27T21:53:40.282Z,102071.09
2022-12-27T21:56:42.609Z,102086.00
2022-12-27T21:59:44.867Z,102094.28
2022-12-27T22:02:47.073Z,102081.34
2022-12-27T22:05:49.212Z,102073.53
2022-12-27T22:08:53.876Z,102083.25
2022-12-27T22:11:55.942Z,102095.94
2022-12-27T22:14:57.963Z,102099.94
2022-12-27T22:18:00.043Z,102105.63
2022-12-27T22:21:04.920Z,102099.34
2022-12-27T22:24:11.955Z,102103.09
2022-12-27T22:27:14.084Z,102115.75
2022-12-27T22:30:16.222Z,102117.59
2022-12-27T22:33:18.260Z,102109.56
2022-12-27T22:36:22.971Z,102120.09
2022-12-27T22:39:24.953Z,102114.97
2022-12-27T22:42:27.081Z,102118.69
2022-12-27T22:45:29.188Z,102120.66
2022-12-27T22:48:31.204Z,102134.72
2022-12-27T22:51:36.252Z,102129.91
2022-12-27T22:55:05.595Z,102119.13
2022-12-27T22:58:00.329Z,102130.34
2022-12-27T23:01:02.341Z,102133.19
2022-12-27T23:04:06.312Z,102135.03
2022-12-27T23:07:08.398Z,102136.50
2022-12-27T23:10:10.494Z,102131.66
2022-12-27T23:13:12.449Z,102137.47
2022-12-27T23:16:15.383Z,102144.34
2022-12-27T23:19:21.407Z,102152.56
2022-12-27T23:22:23.467Z,102148.63
2022-12-27T23:25:25.457Z,102158.97
2022-12-27T23:28:27.537Z,102156.00
2022-12-27T23:31:30.699Z,102163.66
2022-12-27T23:34:32.838Z,102157.66
2022-12-27T23:37:34.947Z,102167.53
2022-12-27T23:40:36.952Z,102161.94
2022-12-27T23:43:56.225Z,102168.03
2022-12-27T23:46:58.573Z,102158.13
2022-12-27T23:50:00.816Z,102150.56
2022-12-27T23:53:03.278Z,102152.44
2022-12-27T23:56:20.810Z,102164.63
2022-12-27T23:59:23.520Z,102167.03
